Time;durP1;ratioP1;P1;durP2;ratioP2;P2;SDS_P1;SDS_P2;PMS_P1;PMS_P2;Temp;Humidity;BMP_temperature;BMP_pressure;BME280_temperature;BME280_humidity;BME280_pressure;Samples;Min_cycle;Max_cycle;Signal;HPM_P1;HPM_P2
2021/07/28 00:01:26;;;;;;;;;;;;;;;17.40;100.00;100404.50;5111863;28;20450;-71
2021/07/28 00:03:52;;;;;;;;;;;;;;;17.41;100.00;100400.72;5111991;28;19978;-71
2021/07/28 00:06:21;;;;;;;;;;;;;;;17.44;100.00;100399.47;5111530;28;20026;-65
2021/07/28 00:08:47;;;;;;;;;;;;;;;17.44;100.00;100399.47;5111735;28;20324;-65
2021/07/28 00:11:14;;;;;;;;;;;;;;;17.42;100.00;100387.84;5111755;28;19955;-66
2021/07/28 00:13:40;;;;;;;;;;;;;;;17.39;100.00;100386.31;5112046;28;19970;-65
2021/07/28 00:16:11;;;;;;;;;;;;;;;17.39;100.00;100383.56;5110394;28;20385;-65
2021/07/28 00:18:43;;;;;;;;;;;;;;;17.39;100.00;100378.09;5111608;28;20331;-65
2021/07/28 00:23:54;;;;;;;;;;;;;;;17.38;100.00;100382.72;5111324;28;19938;-65
2021/07/28 00:26:21;;;;;;;;;;;;;;;17.43;100.00;100379.44;5111626;28;19963;-65
2021/07/28 00:28:47;;;;;;;;;;;;;;;17.49;100.00;100370.50;5111538;28;19962;-67
2021/07/28 00:31:13;;;;;;;;;;;;;;;17.58;100.00;100379.53;5110437;28;19924;-66
2021/07/28 00:33:39;;;;;;;;;;;;;;;17.56;100.00;100365.16;5111867;28;19967;-67
2021/07/28 00:36:06;;;;;;;;;;;;;;;17.54;100.00;100373.56;5115212;28;19943;-64
2021/07/28 00:38:32;;;;;;;;;;;;;;;17.54;100.00;100372.69;5115304;28;20023;-69
2021/07/28 00:40:59;;;;;;;;;;;;;;;17.50;100.00;100372.19;5115362;28;19927;-71
2021/07/28 00:43:26;;;;;;;;;;;;;;;17.45;100.00;100366.41;5115302;28;19924;-70
2021/07/28 00:45:52;;;;;;;;;;;;;;;17.39;100.00;100375.34;5115049;28;19955;-71
2021/07/28 00:48:18;;;;;;;;;;;;;;;17.34;100.00;100375.00;5115177;28;19976;-70
2021/07/28 00:50:45;;;;;;;;;;;;;;;17.28;100.00;100381.22;5114225;28;20391;-70
2021/07/28 00:53:17;;;;;;;;;;;;;;;17.21;100.00;100387.41;5115360;28;19963;-70
2021/07/28 00:55:43;;;;;;;;;;;;;;;17.14;100.00;100391.03;5115144;28;19930;-70
2021/07/28 00:58:11;;;;;;;;;;;;;;;17.04;100.00;100389.34;5115075;28;20418;-71
2021/07/28 01:00:38;;;;;;;;;;;;;;;16.97;100.00;100392.94;5115205;28;19934;-70
2021/07/28 01:03:04;;;;;;;;;;;;;;;16.89;100.00;100383.72;5115411;28;19967;-71
2021/07/28 01:05:30;;;;;;;;;;;;;;;16.87;100.00;100382.16;5115104;28;20018;-71
2021/07/28 01:07:56;;;;;;;;;;;;;;;16.82;100.00;100390.91;5114887;28;19924;-70
2021/07/28 01:10:23;;;;;;;;;;;;;;;16.77;100.00;100390.56;5114405;28;19967;-70
2021/07/28 01:12:53;;;;;;;;;;;;;;;16.71;100.00;100383.03;5114915;28;19924;-70
2021/07/28 01:15:33;;;;;;;;;;;;;;;16.68;100.00;100389.72;5113087;28;20379;-70
2021/07/28 01:18:01;;;;;;;;;;;;;;;16.64;100.00;100382.88;5114664;28;19924;-72
2021/07/28 01:20:31;;;;;;;;;;;;;;;16.53;100.00;100384.06;5114734;28;20402;-72
2021/07/28 01:22:58;;;;;;;;;;;;;;;16.43;100.00;100386.13;5114720;28;20441;-72
2021/07/28 01:25:26;;;;;;;;;;;;;;;16.37;100.00;100384.94;5114663;28;20362;-72
2021/07/28 01:27:53;;;;;;;;;;;;;;;16.26;100.00;100388.03;5114600;28;19927;-72
2021/07/28 01:30:19;;;;;;;;;;;;;;;16.19;100.00;100385.13;5114431;28;19971;-72
2021/07/28 01:32:47;;;;;;;;;;;;;;;16.17;100.00;100389.03;5114473;28;19976;-72
2021/07/28 01:35:15;;;;;;;;;;;;;;;16.14;100.00;100389.34;5114036;28;20026;-70
2021/07/28 01:37:43;;;;;;;;;;;;;;;16.09;100.00;100398.09;5114231;28;20010;-70
2021/07/28 01:40:10;;;;;;;;;;;;;;;16.01;100.00;100404.41;5114305;28;20431;-71
2021/07/28 01:42:40;;;;;;;;;;;;;;;15.97;100.00;100403.03;5114375;28;19924;-70
2021/07/28 01:45:07;;;;;;;;;;;;;;;15.92;100.00;100394.47;5113952;28;19966;-66
2021/07/28 01:47:33;;;;;;;;;;;;;;;15.80;100.00;100396.66;5113832;28;19977;-66
2021/07/28 01:50:00;;;;;;;;;;;;;;;15.74;100.00;100403.63;5113883;28;19924;-66
2021/07/28 01:52:26;;;;;;;;;;;;;;;15.70;100.00;100409.56;5114267;28;19959;-70
2021/07/28 01:54:52;;;;;;;;;;;;;;;15.73;100.00;100412.00;5113592;28;19968;-70
2021/07/28 01:57:18;;;;;;;;;;;;;;;15.69;100.00;100405.16;5114036;28;20387;-70
2021/07/28 01:59:46;;;;;;;;;;;;;;;15.66;100.00;100400.88;5113968;28;19963;-70
2021/07/28 02:02:12;;;;;;;;;;;;;;;15.64;100.00;100404.78;5114131;28;20318;-70
2021/07/28 02:04:38;;;;;;;;;;;;;;;15.65;100.00;100395.56;5114060;28;19924;-71
2021/07/28 02:07:05;;;;;;;;;;;;;;;15.67;100.00;100409.91;5113689;28;19959;-70
2021/07/28 02:09:31;;;;;;;;;;;;;;;15.66;100.00;100414.53;5113815;28;20026;-70
2021/07/28 02:11:57;;;;;;;;;;;;;;;15.67;100.00;100407.19;5113354;28;19962;-66
2021/07/28 02:14:24;;;;;;;;;;;;;;;15.63;100.00;100405.81;5113847;28;19923;-66
2021/07/28 02:16:51;;;;;;;;;;;;;;;15.57;100.00;100405.44;5113660;28;20001;-66
2021/07/28 02:19:18;;;;;;;;;;;;;;;15.57;100.00;100401.84;5113550;28;19924;-66
2021/07/28 02:21:44;;;;;;;;;;;;;;;15.54;100.00;100400.31;5113635;28;20002;-66
2021/07/28 02:24:10;;;;;;;;;;;;;;;15.53;100.00;100390.38;5113239;28;20335;-66
2021/07/28 02:26:36;;;;;;;;;;;;;;;15.48;100.00;100392.75;5113275;28;19924;-66
2021/07/28 02:29:03;;;;;;;;;;;;;;;15.46;100.00;100397.53;5112647;28;20030;-70
2021/07/28 02:31:29;;;;;;;;;;;;;;;15.48;100.00;100403.69;5113423;28;19924;-70
2021/07/28 02:33:57;;;;;;;;;;;;;;;15.43;100.00;100403.31;5113119;28;19923;-71
2021/07/28 02:36:23;;;;;;;;;;;;;;;15.44;100.00;100399.56;5112935;28;20002;-70
2021/07/28 02:38:49;;;;;;;;;;;;;;;15.48;100.00;100397.38;5113138;28;19985;-66
2021/07/28 02:41:15;;;;;;;;;;;;;;;15.53;100.00;100395.00;5113018;28;19970;-66
2021/07/28 02:43:42;;;;;;;;;;;;;;;15.57;100.00;100396.38;5113223;28;19963;-66
2021/07/28 02:46:08;;;;;;;;;;;;;;;15.62;100.00;100393.13;5112733;28;20026;-72
2021/07/28 02:48:34;;;;;;;;;;;;;;;15.61;100.00;100389.56;5112614;28;19963;-71
2021/07/28 02:51:02;;;;;;;;;;;;;;;15.57;100.00;100382.72;5112862;28;20349;-70
2021/07/28 02:53:28;;;;;;;;;;;;;;;15.52;100.00;100387.81;5112788;28;19967;-70
2021/07/28 02:55:55;;;;;;;;;;;;;;;15.47;100.00;100384.72;5112724;28;19924;-70
2021/07/28 02:58:21;;;;;;;;;;;;;;;15.48;100.00;100372.75;5112107;28;19968;-70
2021/07/28 03:00:47;;;;;;;;;;;;;;;15.46;100.00;100375.66;5112846;28;19965;-70
2021/07/28 03:03:14;;;;;;;;;;;;;;;15.50;100.00;100385.25;5111547;28;19928;-70
2021/07/28 03:05:42;;;;;;;;;;;;;;;15.53;100.00;100395.00;5112785;28;19924;-70
2021/07/28 03:08:09;;;;;;;;;;;;;;;15.60;100.00;100389.72;5112276;28;20387;-70
2021/07/28 03:10:36;;;;;;;;;;;;;;;15.71;100.00;100386.66;5112099;28;19930;-70
2021/07/28 03:13:02;;;;;;;;;;;;;;;15.79;100.00;100383.94;5112489;28;20383;-70
2021/07/28 03:15:28;;;;;;;;;;;;;;;15.83;100.00;100390.88;5112255;28;19977;-70
2021/07/28 03:17:55;;;;;;;;;;;;;;;15.89;100.00;100387.44;5112273;28;20275;-70
2021/07/28 03:20:21;;;;;;;;;;;;;;;15.95;100.00;100382.31;5112347;28;19958;-71
2021/07/28 03:22:47;;;;;;;;;;;;;;;16.01;100.00;100390.72;5112472;28;20379;-70
2021/07/28 03:25:15;;;;;;;;;;;;;;;16.08;100.00;100369.00;5112193;28;19924;-70
2021/07/28 03:27:41;;;;;;;;;;;;;;;16.13;100.00;100369.34;5110745;28;19995;-70
2021/07/28 03:30:08;;;;;;;;;;;;;;;16.19;100.00;100378.75;5112343;28;19974;-72
2021/07/28 03:32:34;;;;;;;;;;;;;;;16.21;100.00;100377.56;5112237;28;19928;-66
2021/07/28 03:35:00;;;;;;;;;;;;;;;16.27;100.00;100375.19;5112270;28;20018;-66
2021/07/28 03:37:27;;;;;;;;;;;;;;;16.34;100.00;100367.97;5112023;28;19924;-66
2021/07/28 03:40:00;;;;;;;;;;;;;;;16.38;100.00;100370.22;5112231;28;20415;-66
2021/07/28 03:42:27;;;;;;;;;;;;;;;16.38;100.00;100374.81;5112023;28;19923;-66
2021/07/28 03:44:54;;;;;;;;;;;;;;;16.40;100.00;100370.03;5110953;28;19928;-70
2021/07/28 03:47:20;;;;;;;;;;;;;;;16.37;100.00;100373.13;5111966;28;19924;-70
2021/07/28 03:49:46;;;;;;;;;;;;;;;16.41;100.00;100374.50;5110574;28;20335;-70
2021/07/28 03:52:12;;;;;;;;;;;;;;;16.45;100.00;100373.13;5112369;28;19924;-70
2021/07/28 03:54:39;;;;;;;;;;;;;;;16.50;100.00;100376.22;5112173;28;19924;-70
2021/07/28 03:57:05;;;;;;;;;;;;;;;16.54;100.00;100376.69;5111713;28;19971;-71
2021/07/28 03:59:33;;;;;;;;;;;;;;;16.59;100.00;100378.94;5112070;28;20438;-70
2021/07/28 04:01:59;;;;;;;;;;;;;;;16.69;100.00;100385.09;5111543;28;20406;-70
2021/07/28 04:04:25;;;;;;;;;;;;;;;16.76;100.00;100390.75;5108720;28;19967;-70
2021/07/28 04:06:51;;;;;;;;;;;;;;;16.85;100.00;100390.56;5101899;28;19928;-70
2021/07/28 04:09:18;;;;;;;;;;;;;;;16.94;100.00;100390.56;5092637;28;19946;-69
2021/07/28 04:11:44;;;;;;;;;;;;;;;16.99;100.00;100383.50;5095582;28;20005;-70
2021/07/28 04:14:10;;;;;;;;;;;;;;;17.05;100.00;100384.72;5107180;28;20463;-70
2021/07/28 04:16:38;;;;;;;;;;;;;;;17.09;100.00;100385.22;5115166;28;19963;-70
2021/07/28 04:19:04;;;;;;;;;;;;;;;17.15;100.00;100376.28;5104498;28;19928;-70
2021/07/28 04:21:31;;;;;;;;;;;;;;;17.18;100.00;100371.31;5104547;28;20151;-70
2021/07/28 04:23:57;;;;;;;;;;;;;;;17.28;100.00;100373.84;5095106;28;19939;-62
2021/07/28 04:26:23;;;;;;;;;;;;;;;17.35;100.00;100374.00;5101643;28;19971;-62
2021/07/28 04:28:50;;;;;;;;;;;;;;;17.43;100.00;100371.19;5114419;28;19963;-62
2021/07/28 04:31:17;;;;;;;;;;;;;;;17.51;100.00;100371.16;5113353;28;19930;-62
2021/07/28 04:33:44;;;;;;;;;;;;;;;17.62;100.00;100369.91;5115636;28;19924;-62
2021/07/28 04:36:10;;;;;;;;;;;;;;;17.73;100.00;100388.72;5104593;28;19956;-62
2021/07/28 04:38:37;;;;;;;;;;;;;;;17.83;100.00;100374.78;5115541;28;19966;-62
2021/07/28 04:41:03;;;;;;;;;;;;;;;17.93;100.00;100382.78;5097872;28;19924;-62
2021/07/28 04:43:29;;;;;;;;;;;;;;;18.01;100.00;100379.16;5094981;28;19970;-62
2021/07/28 04:45:59;;;;;;;;;;;;;;;18.05;100.00;100380.50;5110815;28;20346;-62
2021/07/28 04:48:25;;;;;;;;;;;;;;;18.07;100.00;100379.28;5114981;28;19924;-62
2021/07/28 04:50:53;;;;;;;;;;;;;;;18.10;100.00;100371.72;5099654;28;20342;-62
2021/07/28 04:53:20;;;;;;;;;;;;;;;18.10;100.00;100380.81;5094755;28;19927;-62
2021/07/28 04:55:51;;;;;;;;;;;;;;;18.10;100.00;100383.53;5109181;28;19924;-62
2021/07/28 04:58:18;;;;;;;;;;;;;;;18.13;100.00;100385.06;5114626;28;19966;-62
2021/07/28 05:00:44;;;;;;;;;;;;;;;18.17;100.00;100375.44;5101070;28;19972;-62
2021/07/28 05:03:10;;;;;;;;;;;;;;;18.20;100.00;100375.94;5094738;28;19955;-61
2021/07/28 05:05:36;;;;;;;;;;;;;;;18.26;100.00;100368.00;5113293;28;19966;-61
2021/07/28 05:08:04;;;;;;;;;;;;;;;18.31;100.00;100376.53;5105607;28;19986;-61
2021/07/28 05:10:30;;;;;;;;;;;;;;;18.33;100.00;100372.56;5113624;28;20035;-62
2021/07/28 05:12:57;;;;;;;;;;;;;;;18.36;100.00;100366.69;5104564;28;19981;-62
2021/07/28 05:15:23;;;;;;;;;;;;;;;18.41;100.00;100368.88;5095568;28;20379;-62
2021/07/28 05:17:50;;;;;;;;;;;;;;;18.43;100.00;100372.31;5094179;28;20024;-62
2021/07/28 05:20:16;;;;;;;;;;;;;;;18.45;100.00;100367.47;5094952;28;19969;-69
2021/07/28 05:22:42;;;;;;;;;;;;;;;18.46;100.00;100368.34;5094481;28;20349;-62
2021/07/28 05:25:11;;;;;;;;;;;;;;;18.50;100.00;100376.03;5094934;28;19924;-61
2021/07/28 05:27:37;;;;;;;;;;;;;;;18.52;100.00;100382.19;5108592;28;19924;-61
2021/07/28 05:30:04;;;;;;;;;;;;;;;18.55;100.00;100381.81;5099659;28;19959;-69
2021/07/28 05:32:30;;;;;;;;;;;;;;;18.55;100.00;100376.31;5094458;28;20008;-70
2021/07/28 05:34:56;;;;;;;;;;;;;;;18.57;100.00;100379.75;5099168;28;20052;-69
2021/07/28 05:37:23;;;;;;;;;;;;;;;18.58;100.00;100378.69;5097807;28;20028;-69
2021/07/28 05:39:49;;;;;;;;;;;;;;;18.65;100.00;100383.47;5105634;28;19970;-70
2021/07/28 05:42:17;;;;;;;;;;;;;;;18.73;100.00;100378.75;5102149;28;19928;-69
2021/07/28 05:44:43;;;;;;;;;;;;;;;18.81;100.00;100376.94;5100250;28;20387;-69
2021/07/28 05:47:10;;;;;;;;;;;;;;;18.89;100.00;100380.50;5102084;28;19962;-69
2021/07/28 05:49:36;;;;;;;;;;;;;;;18.90;100.00;100382.19;5101517;28;19967;-69
2021/07/28 05:52:02;;;;;;;;;;;;;;;18.93;100.00;100377.38;5113897;28;19985;-69
2021/07/28 05:54:29;;;;;;;;;;;;;;;18.95;100.00;100378.03;5111951;28;19924;-69
2021/07/28 05:56:55;;;;;;;;;;;;;;;18.96;100.00;100377.00;5111587;28;20371;-69
2021/07/28 05:59:22;;;;;;;;;;;;;;;19.00;100.00;100390.19;5097738;28;19931;-69
2021/07/28 06:01:49;;;;;;;;;;;;;;;18.97;100.00;100384.22;5093196;28;19964;-60
2021/07/28 06:04:15;;;;;;;;;;;;;;;18.95;100.00;100376.16;5097869;28;20047;-62
2021/07/28 06:06:41;;;;;;;;;;;;;;;18.96;100.00;100380.63;5113324;28;20452;-62
2021/07/28 06:09:08;;;;;;;;;;;;;;;18.97;100.00;100375.97;5107373;28;19989;-60
2021/07/28 06:11:34;;;;;;;;;;;;;;;19.01;100.00;100377.28;5092983;28;19924;-60
2021/07/28 06:14:00;;;;;;;;;;;;;;;19.05;100.00;100371.22;5096088;28;19978;-62
2021/07/28 06:16:28;;;;;;;;;;;;;;;19.10;100.00;100365.16;5105801;28;20015;-61
2021/07/28 06:18:54;;;;;;;;;;;;;;;19.15;100.00;100373.69;5093545;28;19928;-62
2021/07/28 06:21:20;;;;;;;;;;;;;;;19.18;100.00;100377.97;5113407;27;19947;-61
2021/07/28 06:23:47;;;;;;;;;;;;;;;19.29;100.00;100377.47;5112522;28;19975;-62
2021/07/28 06:26:13;;;;;;;;;;;;;;;19.39;100.00;100382.72;5112484;28;19928;-62
2021/07/28 06:28:39;;;;;;;;;;;;;;;19.43;100.00;100378.53;5107579;28;20368;-62
2021/07/28 06:31:05;;;;;;;;;;;;;;;19.52;100.00;100377.38;5108882;28;19924;-62
2021/07/28 06:33:33;;;;;;;;;;;;;;;19.66;100.00;100370.13;5108599;28;20395;-70
2021/07/28 06:35:59;;;;;;;;;;;;;;;19.72;100.00;100376.75;5092262;28;19974;-69
2021/07/28 06:38:26;;;;;;;;;;;;;;;19.70;100.00;100379.69;5093490;28;19924;-68
2021/07/28 06:40:52;;;;;;;;;;;;;;;19.76;100.00;100383.56;5092555;28;19924;-61
2021/07/28 06:43:18;;;;;;;;;;;;;;;19.81;100.00;100378.38;5093461;28;19928;-62
2021/07/28 06:45:45;;;;;;;;;;;;;;;19.81;100.00;100389.38;5092450;28;19971;-69
2021/07/28 06:48:11;;;;;;;;;;;;;;;19.81;100.00;100383.03;5093509;28;20273;-62
2021/07/28 06:50:38;;;;;;;;;;;;;;;19.87;100.00;100385.88;5112438;28;20013;-62
2021/07/28 06:53:05;;;;;;;;;;;;;;;19.97;100.00;100374.53;5110819;28;20034;-62
2021/07/28 06:55:31;;;;;;;;;;;;;;;20.10;100.00;100373.00;5091056;28;19955;-62
2021/07/28 06:57:57;;;;;;;;;;;;;;;20.23;100.00;100356.59;5091916;28;20357;-62
2021/07/28 07:00:24;;;;;;;;;;;;;;;20.51;100.00;100370.41;5110430;28;19928;-62
2021/07/28 07:02:50;;;;;;;;;;;;;;;20.65;100.00;100376.88;5092176;28;19927;-69
2021/07/28 07:05:16;;;;;;;;;;;;;;;20.69;100.00;100378.22;5093511;28;20027;-62
2021/07/28 07:07:47;;;;;;;;;;;;;;;20.75;100.00;100382.06;5091867;28;19972;-62
2021/07/28 07:10:14;;;;;;;;;;;;;;;20.74;100.00;100380.38;5108302;28;19924;-62
2021/07/28 07:12:40;;;;;;;;;;;;;;;20.73;100.00;100373.16;5110906;28;19923;-62
2021/07/28 07:15:07;;;;;;;;;;;;;;;20.92;100.00;100384.53;5106729;28;19977;-63
2021/07/28 07:17:34;;;;;;;;;;;;;;;20.89;100.00;100381.13;5109267;28;19959;-64
2021/07/28 07:20:00;;;;;;;;;;;;;;;20.98;100.00;100386.47;5091261;28;19924;-68
2021/07/28 07:22:26;;;;;;;;;;;;;;;20.77;100.00;100382.72;5094356;28;19950;-69
2021/07/28 07:24:54;;;;;;;;;;;;;;;20.59;100.00;100388.72;5090583;28;19924;-69
2021/07/28 07:27:20;;;;;;;;;;;;;;;20.53;100.00;100398.63;5092206;28;19985;-70
2021/07/28 07:29:48;;;;;;;;;;;;;;;20.38;100.00;100397.84;5094376;28;20345;-69
2021/07/28 07:32:19;;;;;;;;;;;;;;;20.29;100.00;100404.53;5103246;28;20554;-69
2021/07/28 07:34:45;;;;;;;;;;;;;;;20.20;100.00;100412.06;5102377;28;19931;-69
2021/07/28 07:37:11;;;;;;;;;;;;;;;20.07;100.00;100412.81;5109724;28;20295;-69
2021/07/28 07:39:38;;;;;;;;;;;;;;;20.02;100.00;100416.13;5094068;28;19928;-62
2021/07/28 07:42:05;;;;;;;;;;;;;;;20.05;100.00;100406.63;5098513;28;20311;-63
2021/07/28 07:44:32;;;;;;;;;;;;;;;19.97;100.00;100412.25;5107759;28;19956;-64
2021/07/28 07:46:58;;;;;;;;;;;;;;;20.01;100.00;100408.06;5092110;28;20019;-63
2021/07/28 07:49:24;;;;;;;;;;;;;;;20.12;100.00;100410.28;5103818;28;19924;-64
2021/07/28 07:51:50;;;;;;;;;;;;;;;20.18;100.00;100400.41;5091240;28;19924;-62
2021/07/28 07:54:17;;;;;;;;;;;;;;;20.24;100.00;100397.72;5103388;28;19930;-63
2021/07/28 07:56:43;;;;;;;;;;;;;;;20.34;100.00;100391.03;5109320;28;20018;-62
2021/07/28 07:59:11;;;;;;;;;;;;;;;20.45;100.00;100387.72;5102038;28;20994;-62
2021/07/28 08:01:38;;;;;;;;;;;;;;;20.40;100.00;100395.72;5091503;28;20440;-62
2021/07/28 08:04:04;;;;;;;;;;;;;;;20.70;100.00;100401.16;5090492;28;20307;-62
2021/07/28 08:06:32;;;;;;;;;;;;;;;21.96;100.00;100393.81;5106417;28;20016;-62
2021/07/28 08:08:59;;;;;;;;;;;;;;;22.22;100.00;100393.88;5110070;28;19935;-62
2021/07/28 08:11:25;;;;;;;;;;;;;;;23.26;100.00;100387.09;5097809;28;19928;-62
2021/07/28 08:13:51;;;;;;;;;;;;;;;23.42;100.00;100394.94;5094447;28;20467;-63
2021/07/28 08:16:19;;;;;;;;;;;;;;;23.92;100.00;100405.44;5091953;28;19963;-63
2021/07/28 08:18:46;;;;;;;;;;;;;;;24.49;100.00;100393.56;5103463;28;19924;-63
2021/07/28 08:21:12;;;;;;;;;;;;;;;25.19;100.00;100381.44;5108772;28;20417;-63
2021/07/28 08:23:39;;;;;;;;;;;;;;;25.22;100.00;100376.25;5111528;28;20379;-63
2021/07/28 08:26:06;;;;;;;;;;;;;;;24.98;100.00;100383.56;5092273;28;19924;-63
2021/07/28 08:28:32;;;;;;;;;;;;;;;25.20;100.00;100386.75;5108854;28;19978;-63
2021/07/28 08:30:58;;;;;;;;;;;;;;;25.12;100.00;100384.28;5106419;28;19928;-63
2021/07/28 08:33:27;;;;;;;;;;;;;;;25.54;100.00;100373.38;5111487;28;19924;-63
2021/07/28 08:35:54;;;;;;;;;;;;;;;26.23;100.00;100370.31;5095816;28;19967;-63
2021/07/28 08:38:21;;;;;;;;;;;;;;;25.68;100.00;100376.84;5090894;28;19924;-63
2021/07/28 08:40:49;;;;;;;;;;;;;;;25.91;100.00;100372.47;5092062;28;20272;-63
2021/07/28 08:43:15;;;;;;;;;;;;;;;26.53;100.00;100371.38;5090705;28;19924;-63
2021/07/28 08:45:46;;;;;;;;;;;;;;;27.22;100.00;100368.88;5103164;28;19963;-63
2021/07/28 08:48:12;;;;;;;;;;;;;;;27.57;100.00;100386.66;5109266;28;19923;-63
2021/07/28 08:50:40;;;;;;;;;;;;;;;27.66;100.00;100374.03;5109342;28;19927;-64
2021/07/28 08:53:06;;;;;;;;;;;;;;;27.24;100.00;100374.19;5111135;28;20302;-63
2021/07/28 08:55:33;;;;;;;;;;;;;;;27.33;100.00;100369.09;5110014;28;19924;-63
2021/07/28 08:57:59;;;;;;;;;;;;;;;27.72;100.00;100364.66;5103945;28;19932;-63
2021/07/28 09:00:25;;;;;;;;;;;;;;;28.13;100.00;100369.38;5113228;28;20339;-63
2021/07/28 09:02:52;;;;;;;;;;;;;;;27.42;100.00;100361.22;5114695;28;20051;-63
2021/07/28 09:05:18;;;;;;;;;;;;;;;27.45;99.74;100364.38;5097382;28;19932;-63
2021/07/28 09:07:53;;;;;;;;;;;;;;;27.61;100.00;100362.75;5094225;28;19924;-64
2021/07/28 09:10:19;;;;;;;;;;;;;;;27.30;99.91;100359.28;5094940;28;19992;-63
2021/07/28 09:12:47;;;;;;;;;;;;;;;27.46;100.00;100368.88;5110264;28;19924;-64
2021/07/28 09:15:16;;;;;;;;;;;;;;;27.10;100.00;100359.69;5113358;28;19959;-63
2021/07/28 09:17:47;;;;;;;;;;;;;;;26.66;100.00;100353.59;5102466;28;19930;-65
2021/07/28 09:20:23;;;;;;;;;;;;;;;26.72;100.00;100359.09;5107899;28;19932;-65
2021/07/28 09:22:50;;;;;;;;;;;;;;;26.34;100.00;100363.09;5100793;28;19931;-65
2021/07/28 09:25:18;;;;;;;;;;;;;;;27.05;100.00;100370.69;5114323;28;19927;-65
2021/07/28 09:27:46;;;;;;;;;;;;;;;27.00;100.00;100373.38;5110716;28;20195;-64
2021/07/28 09:30:14;;;;;;;;;;;;;;;26.54;100.00;100362.78;5093816;28;19928;-65
2021/07/28 09:32:59;;;;;;;;;;;;;;;26.60;100.00;100366.53;5094095;28;19959;-65
2021/07/28 09:35:41;;;;;;;;;;;;;;;26.83;100.00;100364.88;5109123;28;19987;-65
2021/07/28 09:38:09;;;;;;;;;;;;;;;26.55;100.00;100369.16;5105561;28;19924;-65
2021/07/28 09:40:36;;;;;;;;;;;;;;;26.81;100.00;100370.69;5093694;28;19924;-65
2021/07/28 09:43:03;;;;;;;;;;;;;;;27.32;100.00;100367.41;5094586;28;19967;-66
2021/07/28 09:45:30;;;;;;;;;;;;;;;26.72;100.00;100361.00;5093417;28;19928;-65
2021/07/28 09:47:56;;;;;;;;;;;;;;;26.00;100.00;100378.53;5103557;28;19974;-66
2021/07/28 09:50:22;;;;;;;;;;;;;;;26.26;100.00;100370.91;5113991;28;19963;-65
2021/07/28 09:52:51;;;;;;;;;;;;;;;26.58;100.00;100379.84;5111669;28;19927;-65
2021/07/28 09:55:23;;;;;;;;;;;;;;;27.34;100.00;100376.34;5109945;28;19927;-69
2021/07/28 09:57:53;;;;;;;;;;;;;;;27.27;100.00;100375.66;5100474;28;19932;-64
2021/07/28 10:00:20;;;;;;;;;;;;;;;26.69;100.00;100380.94;5094493;28;19924;-64
2021/07/28 10:02:47;;;;;;;;;;;;;;;25.71;100.00;100370.81;5093386;28;19970;-65
2021/07/28 10:05:14;;;;;;;;;;;;;;;25.62;100.00;100371.38;5103865;28;20460;-64
2021/07/28 10:07:40;;;;;;;;;;;;;;;25.67;100.00;100368.72;5104070;28;20339;-65
2021/07/28 10:10:09;;;;;;;;;;;;;;;25.97;100.00;100382.63;5107795;28;19924;-65
2021/07/28 10:12:37;;;;;;;;;;;;;;;26.19;100.00;100366.31;5105659;28;19924;-69
2021/07/28 10:15:05;;;;;;;;;;;;;;;26.35;100.00;100361.16;5112404;28;19962;-69
2021/07/28 10:17:32;;;;;;;;;;;;;;;26.51;100.00;100362.38;5113082;28;19928;-70
2021/07/28 10:19:59;;;;;;;;;;;;;;;26.24;99.28;100362.81;5111491;28;19928;-65
2021/07/28 10:22:25;;;;;;;;;;;;;;;25.70;100.00;100377.44;5097588;28;20014;-65
2021/07/28 10:24:52;;;;;;;;;;;;;;;25.52;100.00;100372.75;5112481;28;19924;-65
2021/07/28 10:27:19;;;;;;;;;;;;;;;25.31;100.00;100367.63;5096388;28;20367;-70
2021/07/28 10:29:49;;;;;;;;;;;;;;;25.05;100.00;100356.59;5108869;28;19924;-66
2021/07/28 10:32:27;;;;;;;;;;;;;;;25.29;100.00;100361.47;5112703;28;19947;-65
2021/07/28 10:34:54;;;;;;;;;;;;;;;25.32;100.00;100361.00;5095332;28;20384;-65
2021/07/28 10:37:29;;;;;;;;;;;;;;;25.61;100.00;100358.56;5092438;28;20011;-66
2021/07/28 10:39:55;;;;;;;;;;;;;;;25.92;100.00;100362.19;5109011;28;19967;-66
2021/07/28 10:42:43;;;;;;;;;;;;;;;26.07;98.53;100357.09;5112680;28;19960;-66
2021/07/28 10:45:11;;;;;;;;;;;;;;;25.46;100.00;100357.00;5093786;28;19955;-66
2021/07/28 10:47:39;;;;;;;;;;;;;;;25.33;95.18;100355.19;5095605;28;19924;-68
2021/07/28 10:50:06;;;;;;;;;;;;;;;25.43;100.00;100351.94;5096872;28;19993;-69
2021/07/28 10:52:41;;;;;;;;;;;;;;;25.44;97.45;100334.19;5103217;28;20376;-68
2021/07/28 10:55:21;;;;;;;;;;;;;;;25.74;92.40;100358.38;5092006;28;20319;-69
2021/07/28 10:58:05;;;;;;;;;;;;;;;25.63;92.53;100353.59;5091769;28;19931;-69
2021/07/28 11:01:02;;;;;;;;;;;;;;;25.62;92.82;100358.31;5092442;28;19924;-69
2021/07/28 11:03:36;;;;;;;;;;;;;;;25.43;90.96;100354.72;5072158;28;20022;-69
2021/07/28 11:06:13;;;;;;;;;;;;;;;25.74;91.96;100361.16;5090980;28;19924;-69
2021/07/28 11:08:40;;;;;;;;;;;;;;;25.71;85.91;100359.69;5091392;28;19978;-69
2021/07/28 11:11:07;;;;;;;;;;;;;;;25.77;86.89;100352.34;5101134;28;19930;-68
2021/07/28 11:13:34;;;;;;;;;;;;;;;25.32;89.32;100361.00;5091541;28;19932;-68
2021/07/28 11:16:01;;;;;;;;;;;;;;;25.54;90.75;100370.59;5090293;28;19973;-68
2021/07/28 11:18:39;;;;;;;;;;;;;;;25.44;90.42;100361.09;5089870;28;19998;-63
2021/07/28 11:21:06;;;;;;;;;;;;;;;25.29;90.32;100355.91;5091531;28;19932;-65
2021/07/28 11:23:39;;;;;;;;;;;;;;;25.28;92.60;100370.88;5091820;28;19971;-64
2021/07/28 11:26:12;;;;;;;;;;;;;;;25.30;90.98;100369.56;5091249;28;19959;-63
2021/07/28 11:28:38;;;;;;;;;;;;;;;25.47;90.28;100363.41;5091949;28;19982;-63
2021/07/28 11:31:05;;;;;;;;;;;;;;;25.42;89.03;100366.06;5091224;28;19924;-63
2021/07/28 11:33:32;;;;;;;;;;;;;;;25.93;91.66;100363.91;5091702;28;20387;-63
2021/07/28 11:36:00;;;;;;;;;;;;;;;26.37;88.51;100357.03;5091663;28;19928;-63
2021/07/28 11:38:28;;;;;;;;;;;;;;;26.45;82.96;100363.38;5104940;28;19957;-63
2021/07/28 11:40:56;;;;;;;;;;;;;;;26.91;81.48;100367.28;5103650;28;19928;-63
2021/07/28 11:43:22;;;;;;;;;;;;;;;27.04;72.16;100367.06;5099688;28;19924;-63
2021/07/28 11:45:48;;;;;;;;;;;;;;;26.87;73.87;100369.75;5106321;28;19984;-63
2021/07/28 11:48:27;;;;;;;;;;;;;;;26.09;75.85;100362.41;5111300;28;19923;-67
2021/07/28 11:50:53;;;;;;;;;;;;;;;26.06;79.20;100360.97;5095112;28;19924;-68
2021/07/28 11:53:24;;;;;;;;;;;;;;;26.13;77.89;100360.88;5091351;28;19928;-68
2021/07/28 11:55:50;;;;;;;;;;;;;;;25.99;70.65;100371.28;5101356;28;19924;-63
2021/07/28 11:58:17;;;;;;;;;;;;;;;26.04;72.19;100363.97;5099535;28;19934;-63
2021/07/28 12:00:46;;;;;;;;;;;;;;;26.08;76.56;100366.28;5091858;28;19939;-62
2021/07/28 12:03:26;;;;;;;;;;;;;;;26.04;77.86;100363.13;5091482;28;19967;-62
2021/07/28 12:05:59;;;;;;;;;;;;;;;26.41;79.51;100374.13;5101608;28;19924;-63
2021/07/28 12:08:34;;;;;;;;;;;;;;;25.99;82.33;100376.84;5111551;28;20026;-63
2021/07/28 12:11:01;;;;;;;;;;;;;;;25.81;82.94;100372.19;5109523;28;19932;-62
2021/07/28 12:13:27;;;;;;;;;;;;;;;25.80;83.62;100367.69;5111457;28;19928;-63
2021/07/28 12:16:02;;;;;;;;;;;;;;;25.53;84.08;100368.03;5100699;28;20019;-63
2021/07/28 12:18:39;;;;;;;;;;;;;;;25.52;89.06;100371.91;5096737;28;19924;-63
2021/07/28 12:21:05;;;;;;;;;;;;;;;24.83;86.35;100371.97;5090185;28;19967;-62
2021/07/28 12:23:31;;;;;;;;;;;;;;;24.96;91.79;100373.75;5091307;28;19932;-65
2021/07/28 12:25:59;;;;;;;;;;;;;;;25.15;90.80;100369.09;5090488;28;19982;-67
2021/07/28 12:28:46;;;;;;;;;;;;;;;25.30;90.26;100371.50;5091102;28;19924;-67
2021/07/28 12:31:24;;;;;;;;;;;;;;;25.31;87.95;100370.41;5093193;28;19927;-62
2021/07/28 12:33:50;;;;;;;;;;;;;;;25.23;88.13;100369.63;5094433;28;19978;-63